Terminal Aerodrome Forecast
Issued by NWS Northern Indiana

Home | Current Version | Previous Version | Graphics & Text | Print | Product List | Glossary On
Versions: 1 2 3 4 5 6 7 8 9 10 11 12 13 14 15 16 17 18 19
000
FTUS43 KIWX 180500
TAFFWA
TAF
KFWA 180534Z 1806/1906 07004KT P6SM SCT045 BKN250
     FM180900 05004KT 5SM BR BKN010
     FM181100 06005KT 2SM BR BKN008
      TEMPO 1811/1813 1/2SM FG VV004
     FM181300 06006KT 5SM BR HZ BKN015
     FM181500 07006KT P6SM BKN035=

USA.gov is the U.S. government's official web portal to all federal, state and local government web resources and services.